Time;durP1;ratioP1;P1;durP2;ratioP2;P2;SDS_P1;SDS_P2;PMS_P1;PMS_P2;Temp;Humidity;BMP_temperature;BMP_pressure;BME280_temperature;BME280_humidity;BME280_pressure;Samples;Min_cycle;Max_cycle;Signal;HPM_P1;HPM_P2
2023/08/25 00:02:17;;;;;;;3.33;1.58;;;21.80;99.90;;;;;;4979058;28;20244;-78
2023/08/25 00:04:43;;;;;;;3.50;1.60;;;21.80;99.90;;;;;;4974422;28;20109;-77
2023/08/25 00:07:14;;;;;;;3.28;2.30;;;21.80;99.90;;;;;;4973519;28;20434;-77
2023/08/25 00:09:46;;;;;;;4.22;2.00;;;21.80;99.90;;;;;;4973368;28;20210;-77
2023/08/25 00:12:12;;;;;;;3.03;1.83;;;21.90;99.90;;;;;;4974975;28;20023;-77
2023/08/25 00:14:38;;;;;;;4.22;1.60;;;21.80;99.90;;;;;;4978802;28;20038;-77
2023/08/25 00:17:03;;;;;;;3.67;1.70;;;21.90;99.90;;;;;;4978263;28;20030;-77
2023/08/25 00:19:32;;;;;;;4.30;2.60;;;21.90;99.90;;;;;;4976552;28;20027;-77
2023/08/25 00:21:58;;;;;;;5.18;1.67;;;21.90;99.90;;;;;;4978183;28;20031;-77
2023/08/25 00:24:32;;;;;;;4.22;1.88;;;21.90;99.90;;;;;;4972358;28;20086;-76
2023/08/25 00:26:59;;;;;;;3.70;1.55;;;21.90;99.90;;;;;;4978640;28;20046;-77
2023/08/25 00:29:24;;;;;;;2.10;1.70;;;21.90;99.90;;;;;;4982285;28;20014;-77
2023/08/25 00:31:51;;;;;;;4.40;1.55;;;21.80;99.90;;;;;;4999678;28;20029;-77
2023/08/25 00:34:16;;;;;;;5.65;1.80;;;21.80;99.90;;;;;;4999271;28;20022;-77
2023/08/25 00:36:45;;;;;;;6.38;2.10;;;21.80;99.90;;;;;;4976544;28;20050;-77
2023/08/25 00:39:17;;;;;;;3.92;1.88;;;21.80;99.90;;;;;;4976680;28;20043;-78
2023/08/25 00:41:48;;;;;;;2.35;1.60;;;21.80;99.90;;;;;;4973194;28;20023;-77
2023/08/25 00:44:14;;;;;;;3.38;2.25;;;21.70;99.90;;;;;;4976050;28;20478;-77
2023/08/25 00:46:42;;;;;;;3.78;1.73;;;21.70;99.90;;;;;;4986900;28;20019;-78
2023/08/25 00:49:08;;;;;;;8.57;2.28;;;21.70;99.90;;;;;;4985755;28;20552;-77
2023/08/25 00:51:34;;;;;;;3.25;1.73;;;21.70;99.90;;;;;;4978785;28;20070;-78
2023/08/25 00:54:01;;;;;;;3.55;1.90;;;21.70;99.90;;;;;;4980708;28;20097;-77
2023/08/25 00:56:26;;;;;;;5.38;2.38;;;21.60;99.90;;;;;;4975127;28;20456;-77
2023/08/25 00:58:55;;;;;;;4.18;1.92;;;21.60;99.90;;;;;;4973745;28;20086;-77
2023/08/25 01:01:21;;;;;;;5.13;2.00;;;21.60;99.90;;;;;;4974781;28;20573;-77
2023/08/25 01:03:56;;;;;;;2.70;1.77;;;21.60;99.90;;;;;;4975991;28;20059;-77
2023/08/25 01:06:22;;;;;;;4.22;1.83;;;21.60;99.90;;;;;;4975462;28;20041;-77
2023/08/25 01:08:49;;;;;;;2.90;1.65;;;21.60;99.90;;;;;;4976123;28;20102;-77
2023/08/25 01:11:29;;;;;;;5.97;2.00;;;21.50;99.90;;;;;;4975415;28;20072;-76
2023/08/25 01:13:58;;;;;;;4.65;2.20;;;21.50;99.90;;;;;;4971427;28;20533;-76
2023/08/25 01:16:52;;;;;;;3.13;2.20;;;21.50;99.90;;;;;;4974455;28;20086;-75
2023/08/25 01:19:57;;;;;;;4.32;2.35;;;21.40;99.90;;;;;;4971854;28;20031;-75
2023/08/25 01:22:36;;;;;;;6.75;1.65;;;21.40;99.90;;;;;;4965683;28;20034;-75
2023/08/25 01:25:23;;;;;;;5.85;1.65;;;21.40;99.90;;;;;;4974151;28;20043;-76
2023/08/25 01:27:58;;;;;;;5.25;2.42;;;21.40;99.90;;;;;;4975653;28;20034;-75
2023/08/25 01:30:32;;;;;;;5.35;2.05;;;21.40;99.90;;;;;;4974410;28;20050;-75
2023/08/25 01:32:59;;;;;;;6.22;2.25;;;21.40;99.90;;;;;;4969889;28;20066;-75
2023/08/25 01:35:38;;;;;;;2.55;2.00;;;21.40;99.90;;;;;;4952728;28;20022;-76
2023/08/25 01:38:24;;;;;;;4.78;2.25;;;21.30;99.90;;;;;;4968867;28;20073;-76
2023/08/25 01:41:01;;;;;;;3.83;2.20;;;21.30;99.90;;;;;;4971267;28;20572;-77
2023/08/25 01:43:34;;;;;;;7.10;1.92;;;21.30;99.90;;;;;;4972858;28;20030;-76
2023/08/25 01:46:02;;;;;;;3.10;1.90;;;21.30;99.90;;;;;;4973713;28;20510;-76
2023/08/25 01:48:31;;;;;;;4.07;1.92;;;21.30;99.90;;;;;;4972638;28;20065;-77
2023/08/25 01:50:57;;;;;;;4.32;2.10;;;21.40;99.90;;;;;;4966840;28;20113;-76
2023/08/25 01:53:23;;;;;;;4.65;1.85;;;21.40;99.90;;;;;;4973521;28;20034;-77
2023/08/25 01:55:52;;;;;;;5.28;2.17;;;21.40;99.90;;;;;;4970112;28;20026;-77
2023/08/25 01:58:17;;;;;;;2.83;1.85;;;21.40;99.90;;;;;;4974197;28;20026;-77
2023/08/25 02:00:46;;;;;;;5.20;2.00;;;21.40;99.90;;;;;;4971488;28;20053;-77
2023/08/25 02:03:15;;;;;;;4.43;1.60;;;21.50;99.90;;;;;;4970945;28;20039;-76
2023/08/25 02:05:43;;;;;;;3.25;1.45;;;21.50;99.90;;;;;;4972612;28;20030;-77
2023/08/25 02:08:21;;;;;;;3.00;1.70;;;21.50;99.90;;;;;;4971023;28;20057;-76
2023/08/25 02:10:56;;;;;;;7.13;2.15;;;21.50;99.90;;;;;;4977795;28;20034;-76
2023/08/25 02:13:24;;;;;;;3.88;2.20;;;21.60;99.90;;;;;;4968279;28;20141;-76
2023/08/25 02:15:55;;;;;;;3.90;1.67;;;21.60;99.90;;;;;;4981867;28;20026;-76
2023/08/25 02:18:27;;;;;;;4.07;1.95;;;21.60;99.90;;;;;;4983196;28;20592;-77
2023/08/25 02:20:59;;;;;;;4.97;1.92;;;21.60;99.90;;;;;;4974175;28;20094;-77
2023/08/25 02:23:25;;;;;;;5.10;2.30;;;21.70;99.90;;;;;;4973313;28;20470;-76
2023/08/25 02:25:57;;;;;;;6.18;2.38;;;21.70;99.90;;;;;;4977320;28;20015;-76
2023/08/25 02:28:22;;;;;;;5.32;2.40;;;21.70;99.90;;;;;;4973779;28;20030;-76
2023/08/25 02:30:48;;;;;;;4.68;2.15;;;21.70;99.90;;;;;;4973897;28;20363;-76
2023/08/25 02:33:26;;;;;;;4.35;2.10;;;21.70;99.90;;;;;;4973761;28;20031;-76
2023/08/25 02:35:51;;;;;;;3.20;2.28;;;21.70;99.90;;;;;;4977823;28;20601;-76
2023/08/25 02:38:20;;;;;;;2.63;1.95;;;21.70;99.90;;;;;;4963527;28;20034;-76
2023/08/25 02:40:45;;;;;;;6.47;2.03;;;21.70;99.90;;;;;;4977795;28;20019;-77
2023/08/25 02:43:11;;;;;;;3.92;1.70;;;21.70;99.90;;;;;;4970268;28;20422;-76
2023/08/25 02:45:43;;;;;;;4.57;1.85;;;21.70;99.90;;;;;;4972066;28;20027;-74
2023/08/25 02:48:11;;;;;;;2.90;1.92;;;21.70;99.90;;;;;;4971136;28;20474;-74
2023/08/25 02:50:40;;;;;;;5.30;2.47;;;21.70;99.90;;;;;;4969189;28;20053;-75
2023/08/25 02:53:08;;;;;;;3.70;2.28;;;21.70;99.90;;;;;;4972830;28;20043;-74
2023/08/25 02:55:38;;;;;;;4.47;2.10;;;21.70;99.90;;;;;;4970387;28;20053;-75
2023/08/25 02:58:12;;;;;;;4.68;1.88;;;21.70;99.90;;;;;;4978698;28;20030;-75
2023/08/25 03:00:38;;;;;;;4.82;1.90;;;21.70;99.90;;;;;;4975955;28;20030;-76
2023/08/25 03:03:10;;;;;;;7.60;2.00;;;21.70;99.90;;;;;;4977805;28;20110;-74
2023/08/25 03:05:38;;;;;;;5.63;2.10;;;21.70;99.90;;;;;;4978333;28;20030;-75
2023/08/25 03:08:04;;;;;;;4.38;2.55;;;21.70;99.90;;;;;;4970790;28;20454;-76
2023/08/25 03:10:30;;;;;;;4.80;1.95;;;21.70;99.90;;;;;;4977492;28;20436;-76
2023/08/25 03:12:55;;;;;;;7.57;2.30;;;21.60;99.90;;;;;;4972827;28;20102;-76
2023/08/25 03:15:21;;;;;;;8.13;2.33;;;21.60;99.90;;;;;;4973061;28;20129;-76
2023/08/25 03:17:49;;;;;;;3.45;2.08;;;21.60;99.90;;;;;;4973192;28;20493;-75
2023/08/25 03:20:15;;;;;;;4.38;2.08;;;21.60;99.90;;;;;;4977784;28;20023;-75
2023/08/25 03:22:41;;;;;;;5.25;2.40;;;21.60;99.90;;;;;;4981672;28;20389;-76
2023/08/25 03:25:15;;;;;;;7.43;2.78;;;21.60;99.90;;;;;;4973359;28;20439;-75
2023/08/25 03:27:41;;;;;;;7.47;2.38;;;21.60;99.90;;;;;;4975830;28;20061;-75
2023/08/25 03:30:15;;;;;;;4.28;2.35;;;21.60;99.90;;;;;;4976193;28;20458;-76
2023/08/25 03:32:41;;;;;;;4.32;2.00;;;21.60;99.90;;;;;;4972419;28;20370;-76
2023/08/25 03:35:09;;;;;;;6.15;2.50;;;21.60;99.90;;;;;;4971013;28;20034;-75
2023/08/25 03:37:35;;;;;;;5.13;2.03;;;21.60;99.90;;;;;;4969390;28;20035;-77
2023/08/25 03:40:00;;;;;;;4.68;2.42;;;21.60;99.90;;;;;;4974061;28;20093;-76
2023/08/25 03:42:26;;;;;;;2.85;2.00;;;21.60;99.90;;;;;;4974988;28;20039;-76
2023/08/25 03:45:10;;;;;;;10.95;2.58;;;21.60;99.90;;;;;;4972907;28;20027;-76
2023/08/25 03:47:36;;;;;;;4.95;2.03;;;21.60;99.90;;;;;;4970097;28;20049;-75
2023/08/25 03:50:05;;;;;;;5.68;2.58;;;21.60;99.90;;;;;;4974473;28;20106;-75
2023/08/25 03:52:34;;;;;;;4.75;2.40;;;21.60;99.90;;;;;;4967440;28;20038;-76
2023/08/25 03:55:04;;;;;;;5.18;1.88;;;21.60;99.90;;;;;;4977393;28;20039;-76
2023/08/25 03:57:32;;;;;;;5.95;2.22;;;21.60;99.90;;;;;;4959296;28;20042;-76
2023/08/25 04:00:04;;;;;;;4.70;2.20;;;21.60;99.90;;;;;;4976531;28;20616;-77
2023/08/25 04:02:30;;;;;;;7.88;1.90;;;21.60;99.90;;;;;;4975848;28;20022;-77
2023/08/25 04:04:56;;;;;;;3.78;2.00;;;21.70;99.90;;;;;;4977426;28;20023;-76
2023/08/25 04:07:24;;;;;;;4.35;1.75;;;21.60;99.90;;;;;;4965002;28;20081;-76
2023/08/25 04:09:49;;;;;;;4.68;2.85;;;21.70;99.90;;;;;;4977257;28;20030;-76
2023/08/25 04:12:15;;;;;;;3.38;1.90;;;21.60;99.90;;;;;;4975905;28;20482;-76
2023/08/25 04:14:41;;;;;;;4.57;2.90;;;21.60;99.90;;;;;;4973923;28;20037;-76
2023/08/25 04:17:08;;;;;;;4.95;2.33;;;21.60;99.90;;;;;;4971506;28;20389;-76
2023/08/25 04:19:34;;;;;;;3.83;2.10;;;21.60;99.90;;;;;;4975242;28;20062;-77
2023/08/25 04:22:00;;;;;;;4.22;2.70;;;21.60;99.90;;;;;;4971159;28;20059;-76
2023/08/25 04:24:34;;;;;;;4.40;1.90;;;21.60;99.90;;;;;;4972520;28;20034;-76
2023/08/25 04:27:00;;;;;;;5.03;1.92;;;21.60;99.90;;;;;;4972353;28;20496;-75
2023/08/25 04:29:25;;;;;;;3.78;2.42;;;21.60;99.90;;;;;;4976676;28;20098;-77
2023/08/25 04:31:51;;;;;;;5.03;2.10;;;21.60;99.90;;;;;;4980142;28;20393;-77
2023/08/25 04:34:17;;;;;;;6.93;2.50;;;21.60;99.90;;;;;;4975742;28;20054;-76
2023/08/25 04:36:48;;;;;;;4.65;2.63;;;21.50;99.90;;;;;;4984513;28;20038;-76
2023/08/25 04:39:14;;;;;;;5.15;2.20;;;21.50;99.90;;;;;;4976372;28;20039;-76
2023/08/25 04:41:40;;;;;;;6.40;2.15;;;21.50;99.90;;;;;;4980372;28;20029;-76
2023/08/25 04:44:08;;;;;;;5.55;2.72;;;21.50;99.90;;;;;;4986623;28;20031;-76
2023/08/25 04:46:34;;;;;;;4.40;2.25;;;21.50;99.90;;;;;;4976681;28;20138;-76
2023/08/25 04:48:59;;;;;;;5.15;2.30;;;21.50;99.90;;;;;;4977806;28;20058;-76
2023/08/25 04:51:25;;;;;;;8.68;3.80;;;21.50;99.90;;;;;;4974840;28;20019;-77
2023/08/25 04:53:51;;;;;;;3.95;2.00;;;21.50;99.90;;;;;;4958974;28;20026;-79
2023/08/25 04:56:17;;;;;;;7.28;2.15;;;21.50;99.90;;;;;;4983634;28;20485;-78
2023/08/25 04:58:43;;;;;;;7.32;2.45;;;21.60;99.90;;;;;;4981369;28;20122;-78
2023/08/25 05:01:08;;;;;;;3.55;2.20;;;21.70;99.90;;;;;;4964769;28;20125;-77
2023/08/25 05:03:34;;;;;;;6.70;2.50;;;21.70;99.90;;;;;;4976940;28;20065;-77
2023/08/25 05:06:00;;;;;;;6.35;2.58;;;21.80;99.90;;;;;;4972452;28;20051;-74
2023/08/25 05:08:25;;;;;;;5.60;2.20;;;21.80;99.90;;;;;;4975054;28;20517;-76
2023/08/25 05:10:51;;;;;;;3.65;2.47;;;21.90;99.90;;;;;;4970044;28;20054;-76
2023/08/25 05:13:22;;;;;;;4.30;2.50;;;21.90;99.90;;;;;;4972172;28;20117;-73
2023/08/25 05:15:48;;;;;;;6.07;2.58;;;21.90;99.90;;;;;;4970207;28;20027;-76
2023/08/25 05:18:14;;;;;;;5.85;2.35;;;22.00;99.90;;;;;;4975599;28;20175;-80
2023/08/25 05:20:39;;;;;;;4.05;2.03;;;22.10;99.90;;;;;;4972591;28;20023;-74
2023/08/25 05:23:08;;;;;;;9.85;3.42;;;22.10;99.90;;;;;;4975841;28;20393;-76
2023/08/25 05:25:34;;;;;;;8.65;4.45;;;22.20;99.90;;;;;;4972237;28;20027;-75
2023/08/25 05:27:59;;;;;;;5.85;2.75;;;22.20;99.90;;;;;;4972204;28;20046;-72
2023/08/25 05:30:25;;;;;;;4.05;1.98;;;22.20;99.90;;;;;;4971683;28;20493;-76
2023/08/25 05:32:50;;;;;;;4.50;2.35;;;22.30;99.90;;;;;;4976900;28;20019;-74
2023/08/25 05:35:16;;;;;;;4.78;2.40;;;22.40;99.90;;;;;;4973853;28;20022;-75
2023/08/25 05:37:42;;;;;;;5.55;2.40;;;22.40;99.90;;;;;;4985700;28;20096;-81
2023/08/25 05:40:12;;;;;;;6.88;2.55;;;22.50;99.90;;;;;;4990266;28;20027;-82
2023/08/25 05:42:38;;;;;;;3.70;2.30;;;22.60;99.90;;;;;;4992648;28;20066;-81
2023/08/25 05:45:04;;;;;;;7.00;2.03;;;22.60;99.90;;;;;;4988574;28;20035;-81
2023/08/25 05:47:30;;;;;;;7.35;2.55;;;22.70;99.90;;;;;;4988791;28;20031;-81
2023/08/25 05:49:57;;;;;;;7.30;2.90;;;22.80;99.90;;;;;;4967907;28;20042;-74
2023/08/25 05:52:23;;;;;;;8.63;2.75;;;22.80;99.90;;;;;;4980397;28;20358;-80
2023/08/25 05:54:48;;;;;;;6.15;2.50;;;22.90;99.90;;;;;;4977573;28;20049;-82
2023/08/25 05:57:14;;;;;;;5.00;2.78;;;22.90;99.90;;;;;;4962573;28;20035;-81
2023/08/25 05:59:40;;;;;;;4.97;2.53;;;23.00;99.90;;;;;;4981609;28;20034;-85
2023/08/25 06:02:06;;;;;;;4.63;2.45;;;23.00;99.90;;;;;;4960560;28;20031;-84
2023/08/25 06:04:32;;;;;;;5.95;2.67;;;23.10;99.90;;;;;;4982134;28;20091;-82
2023/08/25 06:06:57;;;;;;;7.38;2.58;;;23.10;99.90;;;;;;4981069;28;20034;-83
2023/08/25 06:09:23;;;;;;;9.93;2.95;;;23.10;99.90;;;;;;4961600;28;20023;-84
2023/08/25 06:11:49;;;;;;;4.47;2.67;;;23.10;99.90;;;;;;4977836;28;20046;-83
2023/08/25 06:14:18;;;;;;;6.90;2.85;;;23.00;99.90;;;;;;4982802;28;20043;-84
2023/08/25 06:16:44;;;;;;;5.68;3.00;;;22.90;99.90;;;;;;4978404;28;20025;-83
2023/08/25 06:19:10;;;;;;;5.28;2.63;;;22.90;99.90;;;;;;4979430;28;20023;-82
2023/08/25 06:21:38;;;;;;;6.18;3.03;;;22.90;99.90;;;;;;4972539;28;20031;-88
2023/08/25 06:24:04;;;;;;;6.18;2.40;;;22.90;99.90;;;;;;4990631;28;20038;-79
2023/08/25 06:26:29;;;;;;;6.78;2.42;;;22.80;99.90;;;;;;4996935;28;20045;-80
2023/08/25 06:28:56;;;;;;;6.13;2.70;;;22.80;99.90;;;;;;4994652;28;20113;-80
2023/08/25 06:31:22;;;;;;;4.95;2.97;;;22.60;99.90;;;;;;4973799;28;20030;-79
2023/08/25 06:33:48;;;;;;;7.32;2.60;;;22.40;99.90;;;;;;4977837;28;20027;-79
2023/08/25 06:36:16;;;;;;;5.32;2.47;;;22.40;99.90;;;;;;4977349;28;20066;-80
2023/08/25 06:38:42;;;;;;;6.68;2.85;;;22.30;99.90;;;;;;4977243;28;20031;-79
2023/08/25 06:41:08;;;;;;;9.55;3.10;;;22.10;99.90;;;;;;4984576;28;20092;-78
2023/08/25 06:43:36;;;;;;;4.80;2.70;;;22.10;99.90;;;;;;4996427;28;20145;-78
2023/08/25 06:46:01;;;;;;;8.88;3.03;;;22.00;99.90;;;;;;4997674;28;20034;-79
2023/08/25 06:48:30;;;;;;;8.48;3.35;;;22.00;99.90;;;;;;4994717;28;20018;-81
2023/08/25 06:50:55;;;;;;;4.80;2.72;;;22.00;99.90;;;;;;4957753;29;20446;-79
2023/08/25 06:53:30;;;;;;;7.63;2.83;;;22.00;99.90;;;;;;4970848;28;20114;-78
2023/08/25 06:55:56;;;;;;;4.80;2.90;;;22.10;99.90;;;;;;4976539;28;20027;-78
2023/08/25 06:58:22;;;;;;;3.95;2.25;;;22.10;99.90;;;;;;4976701;28;20019;-79
2023/08/25 07:00:47;;;;;;;5.30;2.97;;;22.20;99.90;;;;;;4976569;28;20027;-79
2023/08/25 07:03:13;;;;;;;5.68;2.97;;;22.20;99.90;;;;;;4976990;28;20095;-81
2023/08/25 07:05:49;;;;;;;5.13;2.65;;;22.30;99.90;;;;;;4975991;28;20027;-79
2023/08/25 07:08:14;;;;;;;7.80;3.83;;;22.40;99.90;;;;;;4976635;28;20027;-81
2023/08/25 07:10:46;;;;;;;4.53;2.65;;;22.40;99.90;;;;;;4977209;28;20035;-79
2023/08/25 07:13:12;;;;;;;7.50;2.90;;;22.50;99.90;;;;;;4959464;28;20033;-80
2023/08/25 07:15:37;;;;;;;7.60;3.03;;;22.60;99.90;;;;;;4977023;28;20074;-81
2023/08/25 07:18:12;;;;;;;7.05;2.75;;;22.60;99.90;;;;;;4976599;28;20039;-81
2023/08/25 07:20:41;;;;;;;5.13;2.63;;;22.70;99.90;;;;;;4976995;28;20031;-81
2023/08/25 07:23:06;;;;;;;2.63;2.38;;;22.70;99.90;;;;;;4977384;28;20138;-81
2023/08/25 07:25:35;;;;;;;6.63;3.00;;;22.70;99.90;;;;;;4977120;28;20513;-79
2023/08/25 07:28:04;;;;;;;4.68;2.65;;;22.70;99.90;;;;;;4977933;28;20118;-80
2023/08/25 07:30:37;;;;;;;9.45;2.78;;;22.70;99.90;;;;;;4980989;28;20082;-81
2023/08/25 07:33:03;;;;;;;5.88;2.67;;;22.70;99.90;;;;;;4979458;28;20019;-80
2023/08/25 07:35:35;;;;;;;4.95;2.42;;;22.70;99.90;;;;;;4966880;28;20385;-79
2023/08/25 07:38:01;;;;;;;5.72;3.05;;;22.60;99.90;;;;;;4979752;28;20110;-78
2023/08/25 07:40:27;;;;;;;5.97;2.60;;;22.60;99.90;;;;;;4979504;28;20524;-79
2023/08/25 07:43:02;;;;;;;4.68;2.95;;;22.60;99.90;;;;;;4978577;28;20042;-79
2023/08/25 07:45:29;;;;;;;5.30;3.03;;;22.50;99.90;;;;;;4970754;28;20023;-79
2023/08/25 07:47:59;;;;;;;5.38;2.67;;;22.50;99.90;;;;;;4979556;28;20022;-78
2023/08/25 07:50:26;;;;;;;4.80;2.60;;;22.40;99.90;;;;;;4980317;28;20390;-79
2023/08/25 07:52:56;;;;;;;3.72;3.03;;;22.40;99.90;;;;;;4962693;28;20030;-81
2023/08/25 07:55:40;;;;;;;6.60;2.80;;;22.30;99.90;;;;;;4980612;28;20181;-80
2023/08/25 07:58:30;;;;;;;;;;;22.30;99.90;;;;;;4958907;29;20031;-80
2023/08/25 08:01:02;;;;;;;5.70;2.65;;;22.20;99.90;;;;;;4950408;29;20477;-79
2023/08/25 08:03:29;;;;;;;6.13;2.38;;;22.20;99.90;;;;;;4942347;29;20027;-80
2023/08/25 08:05:54;;;;;;;7.95;3.33;;;22.10;99.90;;;;;;4957747;29;20028;-79
2023/08/25 08:08:23;;;;;;;6.55;2.75;;;22.00;99.90;;;;;;4966572;28;20031;-79
2023/08/25 08:10:52;;;;;;;6.82;3.00;;;21.90;99.90;;;;;;4980145;28;20031;-81
2023/08/25 08:13:27;;;;;;;7.70;3.50;;;21.80;99.90;;;;;;4980377;28;20031;-78
2023/08/25 08:15:58;;;;;;;8.57;3.50;;;21.80;99.90;;;;;;4980056;28;20019;-80
2023/08/25 08:18:33;;;;;;;6.72;3.42;;;21.70;99.90;;;;;;4965772;28;20028;-80
2023/08/25 08:21:01;;;;;;;11.43;3.13;;;21.60;99.90;;;;;;4974568;28;20026;-79
2023/08/25 08:23:30;;;;;;;6.38;3.35;;;21.60;99.90;;;;;;4980644;28;20031;-80
2023/08/25 08:25:59;;;;;;;6.22;2.78;;;21.50;99.90;;;;;;4978229;28;20085;-79
2023/08/25 08:28:33;;;;;;;7.75;3.13;;;21.40;99.90;;;;;;4973988;28;20042;-80
2023/08/25 08:31:03;;;;;;;5.53;3.20;;;21.20;99.90;;;;;;4976889;28;20038;-78
2023/08/25 08:33:32;;;;;;;11.27;3.90;;;21.20;99.90;;;;;;4979280;28;20046;-80
2023/08/25 08:36:02;;;;;;;7.05;3.10;;;21.10;99.90;;;;;;4977110;28;20043;-79
2023/08/25 08:38:27;;;;;;;5.18;3.25;;;21.20;99.90;;;;;;4967931;28;20095;-80
2023/08/25 08:41:01;;;;;;;6.47;3.38;;;21.20;99.90;;;;;;4978751;28;20054;-80
2023/08/25 08:43:38;;;;;;;;;;;21.20;99.90;;;;;;4976647;28;20015;-81
2023/08/25 08:46:07;;;;;;;7.45;3.15;;;21.20;99.90;;;;;;4979763;28;19910;-80
2023/08/25 08:48:35;;;;;;;6.60;3.38;;;21.30;99.90;;;;;;4979492;28;20034;-79
2023/08/25 08:51:13;;;;;;;7.82;3.80;;;21.30;99.90;;;;;;4978623;28;20034;-80
2023/08/25 08:53:50;;;;;;;5.82;3.10;;;21.30;99.90;;;;;;4978174;28;20069;-79
2023/08/25 08:56:16;;;;;;;6.55;3.00;;;21.40;99.90;;;;;;4967063;28;20454;-79
2023/08/25 08:58:45;;;;;;;4.95;3.47;;;21.40;99.90;;;;;;4976301;28;20090;-80
2023/08/25 09:01:10;;;;;;;6.85;3.90;;;21.40;99.90;;;;;;4977614;28;20027;-79
2023/08/25 09:03:38;;;;;;;9.15;3.20;;;21.40;99.90;;;;;;4977474;28;20029;-80
2023/08/25 09:06:10;;;;;;;6.38;3.42;;;21.50;99.90;;;;;;4983188;28;20033;-80
2023/08/25 09:08:37;;;;;;;7.03;3.22;;;21.50;99.90;;;;;;4983128;28;20105;-79
2023/08/25 09:11:06;;;;;;;7.47;3.35;;;21.60;99.90;;;;;;4978627;28;20101;-81
2023/08/25 09:13:37;;;;;;;5.07;3.20;;;21.70;99.90;;;;;;4978033;28;20027;-79
2023/08/25 09:16:13;;;;;;;5.82;3.30;;;21.80;99.90;;;;;;4980154;28;20026;-79
2023/08/25 09:18:48;;;;;;;6.22;2.97;;;21.80;99.90;;;;;;4974100;28;20027;-81
2023/08/25 09:21:19;;;;;;;4.63;2.70;;;21.80;99.90;;;;;;4980037;28;20082;-79
2023/08/25 09:24:16;;;;;;;4.30;2.58;;;21.90;99.90;;;;;;4972578;28;20158;-82
2023/08/25 09:26:46;;;;;;;6.50;2.45;;;22.00;99.90;;;;;;4951212;28;20038;-82
2023/08/25 09:29:18;;;;;;;4.63;2.30;;;22.10;99.90;;;;;;4982517;28;20174;-84
2023/08/25 09:31:47;;;;;;;4.22;2.28;;;22.10;99.90;;;;;;4971165;28;20026;-85
2023/08/25 09:34:16;;;;;;;3.15;2.45;;;22.20;99.90;;;;;;4981134;28;20027;-84
2023/08/25 09:36:55;;;;;;;2.95;1.98;;;22.30;99.90;;;;;;4986523;28;20042;-85
2023/08/25 09:39:22;;;;;;;6.00;2.17;;;22.30;99.90;;;;;;4978389;28;20034;-85
2023/08/25 09:41:48;;;;;;;5.10;2.65;;;22.40;99.90;;;;;;4985392;28;20054;-86
2023/08/25 09:44:18;;;;;;;4.97;2.17;;;22.50;99.90;;;;;;4986698;28;20027;-86
2023/08/25 09:46:49;;;;;;;3.67;2.20;;;22.60;99.90;;;;;;4980202;28;20455;-83
2023/08/25 09:49:15;;;;;;;6.05;2.53;;;22.60;99.90;;;;;;4979753;28;20033;-82
2023/08/25 09:51:45;;;;;;;5.68;2.45;;;22.70;99.90;;;;;;4981733;28;20035;-82
2023/08/25 09:54:18;;;;;;;5.80;2.65;;;22.80;99.90;;;;;;4965877;28;20063;-82
2023/08/25 09:56:47;;;;;;;5.95;2.70;;;22.90;99.90;;;;;;4981119;28;20560;-82
2023/08/25 09:59:16;;;;;;;3.53;1.50;;;23.00;99.90;;;;;;4981048;28;20436;-82
2023/08/25 10:01:45;;;;;;;3.47;1.60;;;23.10;99.90;;;;;;4980217;28;20022;-83
2023/08/25 10:04:12;;;;;;;4.28;1.60;;;23.20;99.90;;;;;;4976947;28;20105;-84
2023/08/25 10:06:39;;;;;;;5.13;2.15;;;23.30;99.90;;;;;;4975499;28;20085;-84
2023/08/25 10:09:06;;;;;;;4.55;2.10;;;23.40;99.90;;;;;;4977664;28;20027;-84
2023/08/25 10:11:41;;;;;;;4.13;2.33;;;23.50;99.90;;;;;;4977416;28;20082;-84
2023/08/25 10:14:24;;;;;;;3.97;2.20;;;23.60;99.90;;;;;;4977037;28;20025;-85
2023/08/25 10:16:53;;;;;;;5.45;2.42;;;23.70;99.90;;;;;;4980617;28;20031;-84
2023/08/25 10:19:23;;;;;;;7.53;3.50;;;23.90;99.90;;;;;;4975364;28;20035;-81
2023/08/25 10:21:54;;;;;;;4.90;3.05;;;24.10;99.90;;;;;;4975027;28;20034;-82
2023/08/25 10:24:25;;;;;;;4.32;2.35;;;24.20;99.90;;;;;;4974607;28;20042;-82
2023/08/25 10:27:10;;;;;;;4.43;2.40;;;24.30;99.90;;;;;;4974102;28;20033;-81
2023/08/25 10:29:39;;;;;;;4.80;1.70;;;24.40;99.90;;;;;;4979542;28;20126;-82
2023/08/25 10:32:05;;;;;;;2.13;1.70;;;24.50;99.90;;;;;;4975466;28;20032;-81
2023/08/25 10:34:34;;;;;;;2.88;1.92;;;24.70;99.90;;;;;;4977456;28;20026;-82
2023/08/25 10:37:04;;;;;;;3.90;2.05;;;24.80;99.90;;;;;;4973320;28;20035;-82
2023/08/25 10:39:59;;;;;;;3.85;1.83;;;25.00;99.90;;;;;;4974828;28;20031;-82
2023/08/25 10:42:30;;;;;;;2.70;1.77;;;25.10;99.90;;;;;;4979412;28;20021;-81
2023/08/25 10:45:00;;;;;;;2.10;1.77;;;25.30;99.90;;;;;;4973844;28;20474;-83
2023/08/25 10:47:29;;;;;;;1.55;1.40;;;25.30;99.90;;;;;;4982239;28;20034;-81
2023/08/25 10:49:56;;;;;;;1.70;1.60;;;25.50;99.90;;;;;;4973692;28;20382;-81
2023/08/25 10:52:24;;;;;;;2.78;1.60;;;25.60;99.90;;;;;;4975184;28;20031;-82
2023/08/25 10:54:52;;;;;;;2.92;1.63;;;25.70;99.90;;;;;;4978043;28;20023;-80
2023/08/25 10:57:40;;;;;;;3.05;1.55;;;25.90;99.90;;;;;;4977282;28;20035;-82
2023/08/25 11:00:36;;;;;;;1.73;1.55;;;26.00;99.90;;;;;;4975132;28;20031;-82
2023/08/25 11:03:08;;;;;;;1.90;1.70;;;26.20;99.90;;;;;;4978573;28;20046;-81
2023/08/25 11:05:47;;;;;;;3.90;1.83;;;26.30;99.90;;;;;;4977188;28;20031;-82
2023/08/25 11:08:24;;;;;;;2.80;1.83;;;26.40;99.90;;;;;;4964471;28;20046;-82
2023/08/25 11:11:11;;;;;;;2.33;1.80;;;26.50;99.90;;;;;;4983181;28;20049;-82
2023/08/25 11:13:52;;;;;;;2.22;2.00;;;26.60;99.90;;;;;;4978975;28;20113;-81
2023/08/25 11:16:18;;;;;;;3.78;1.90;;;26.70;99.50;;;;;;4977986;28;20023;-82
2023/08/25 11:18:44;;;;;;;3.08;1.90;;;26.70;99.70;;;;;;4977594;28;20050;-81
2023/08/25 11:21:11;;;;;;;2.38;1.90;;;26.70;99.90;;;;;;4976155;28;20022;-82
2023/08/25 11:23:44;;;;;;;2.15;1.70;;;26.80;99.60;;;;;;4980199;28;20034;-82
2023/08/25 11:26:14;;;;;;;2.15;1.80;;;26.80;99.40;;;;;;4974564;28;20035;-82
2023/08/25 11:28:49;;;;;;;2.30;2.03;;;26.80;99.30;;;;;;4980776;28;20034;-82
2023/08/25 11:31:15;;;;;;;3.65;2.10;;;26.80;98.90;;;;;;4980056;28;20027;-82
2023/08/25 11:33:51;;;;;;;2.08;1.88;;;26.70;99.10;;;;;;4980360;28;20082;-83
2023/08/25 11:36:17;;;;;;;2.25;2.00;;;26.70;99.00;;;;;;4978970;28;20482;-83
2023/08/25 11:38:47;;;;;;;3.53;1.75;;;26.70;99.00;;;;;;4981186;28;20022;-82
2023/08/25 11:41:14;;;;;;;2.58;1.90;;;26.70;99.00;;;;;;4984331;28;20046;-82
2023/08/25 11:43:47;;;;;;;2.95;2.50;;;26.70;99.00;;;;;;4974198;28;20118;-83
2023/08/25 11:46:18;;;;;;;2.30;2.10;;;26.70;99.30;;;;;;4982172;28;20026;-81
2023/08/25 11:48:55;;;;;;;3.08;2.15;;;26.60;99.60;;;;;;4978633;28;20030;-81
2023/08/25 11:51:23;;;;;;;4.30;2.53;;;26.60;99.80;;;;;;4980102;28;20113;-81
2023/08/25 11:53:52;;;;;;;4.90;2.17;;;26.60;99.80;;;;;;5015653;23;20064;-76
2023/08/25 11:56:23;;;;;;;3.92;2.58;;;26.60;99.60;;;;;;5010442;28;20480;-76
2023/08/25 11:58:53;;;;;;;3.20;2.40;;;26.60;99.80;;;;;;5010462;28;20411;-76
2023/08/25 12:01:18;;;;;;;4.22;2.20;;;26.50;99.90;;;;;;5004281;28;21219;-76
2023/08/25 12:03:44;;;;;;;3.17;2.50;;;26.50;99.90;;;;;;5006226;28;20149;-76
2023/08/25 12:06:11;;;;;;;2.58;2.17;;;26.50;99.80;;;;;;5011369;28;20034;-76
2023/08/25 12:08:39;;;;;;;4.15;2.70;;;26.50;99.90;;;;;;5012293;28;20026;-76
2023/08/25 12:11:10;;;;;;;3.30;2.50;;;26.60;99.90;;;;;;5012325;28;20030;-76
2023/08/25 12:13:40;;;;;;;3.47;2.88;;;26.60;99.90;;;;;;4995965;28;20575;-76
2023/08/25 12:16:06;;;;;;;4.35;2.67;;;26.60;99.90;;;;;;5010931;28;20022;-76
2023/08/25 12:18:34;;;;;;;5.38;3.00;;;26.70;99.90;;;;;;5009712;28;20028;-76
2023/08/25 12:21:05;;;;;;;5.68;2.90;;;26.80;99.90;;;;;;5011154;28;20028;-76
2023/08/25 12:23:47;;;;;;;4.82;2.58;;;26.70;99.80;;;;;;5009443;28;20037;-76
2023/08/25 12:26:12;;;;;;;3.92;2.70;;;26.70;99.70;;;;;;5010131;28;20445;-76
2023/08/25 12:28:38;;;;;;;5.20;2.95;;;26.70;99.50;;;;;;4995485;28;20097;-76
2023/08/25 12:31:04;;;;;;;4.45;2.55;;;26.70;99.80;;;;;;4994498;28;20457;-76
2023/08/25 12:33:30;;;;;;;3.08;2.60;;;26.70;99.50;;;;;;5010047;28;20021;-76
2023/08/25 12:35:57;;;;;;;4.70;2.60;;;26.60;99.10;;;;;;5011908;28;20024;-76
2023/08/25 12:38:32;;;;;;;5.78;3.67;;;26.60;98.90;;;;;;5010010;28;20047;-76
2023/08/25 12:41:00;;;;;;;3.85;3.00;;;26.60;99.40;;;;;;5011404;28;20018;-76
2023/08/25 12:43:26;;;;;;;5.05;3.10;;;26.50;99.70;;;;;;5009509;28;20014;-76
2023/08/25 12:45:51;;;;;;;7.25;2.92;;;26.50;99.90;;;;;;5010174;28;20041;-75
2023/08/25 12:48:17;;;;;;;4.40;2.83;;;26.50;99.90;;;;;;4992915;28;20480;-75
2023/08/25 12:50:43;;;;;;;6.40;2.72;;;26.50;99.90;;;;;;4990136;28;20053;-76
2023/08/25 12:53:08;;;;;;;5.82;2.50;;;26.40;99.30;;;;;;5008771;28;20129;-76
2023/08/25 12:55:34;;;;;;;6.85;3.58;;;26.40;99.30;;;;;;5009049;28;20182;-76
2023/08/25 12:58:00;;;;;;;4.03;2.78;;;26.50;99.50;;;;;;5013416;28;20412;-76
2023/08/25 13:00:25;;;;;;;4.70;3.17;;;26.50;99.00;;;;;;5014013;28;20026;-76